sensor_id;sensor_type;location;lat;lon;timestamp;pressure;altitude;pressure_sealevel;temperature;humidity
28630;BME280;15817;42.130;24.762;2023-12-20T00:00:45;100320.41;;;3.82;100.00
28630;BME280;15817;42.130;24.762;2023-12-20T00:03:39;100332.88;;;3.87;100.00
28630;BME280;15817;42.130;24.762;2023-12-20T00:06:33;100320.41;;;3.80;100.00
28630;BME280;15817;42.130;24.762;2023-12-20T00:09:16;100315.16;;;3.80;100.00
28630;BME280;15817;42.130;24.762;2023-12-20T00:11:52;100324.00;;;3.84;100.00
28630;BME280;15817;42.130;24.762;2023-12-20T00:14:59;100307.25;;;3.80;100.00
28630;BME280;15817;42.130;24.762;2023-12-20T00:17:32;100304.63;;;3.82;100.00
28630;BME280;15817;42.130;24.762;2023-12-20T00:20:13;100310.88;;;3.85;100.00
28630;BME280;15817;42.130;24.762;2023-12-20T00:23:05;100324.03;;;3.85;100.00
28630;BME280;15817;42.130;24.762;2023-12-20T00:25:47;100324.00;;;3.84;100.00
28630;BME280;15817;42.130;24.762;2023-12-20T00:28:41;100309.84;;;3.79;100.00
28630;BME280;15817;42.130;24.762;2023-12-20T00:31:14;100312.50;;;3.80;100.00
28630;BME280;15817;42.130;24.762;2023-12-20T00:34:14;100312.38;;;3.76;100.00
28630;BME280;15817;42.130;24.762;2023-12-20T00:36:45;100298.06;;;3.66;100.00
28630;BME280;15817;42.130;24.762;2023-12-20T00:42:00;100289.78;;;3.52;100.00
28630;BME280;15817;42.130;24.762;2023-12-20T00:47:25;100279.59;;;3.33;100.00
28630;BME280;15817;42.130;24.762;2023-12-20T00:50:27;100270.81;;;3.33;100.00
28630;BME280;15817;42.130;24.762;2023-12-20T00:53:44;100269.91;;;3.32;100.00
28630;BME280;15817;42.130;24.762;2023-12-20T00:56:38;100263.00;;;3.36;100.00
28630;BME280;15817;42.130;24.762;2023-12-20T00:59:30;100271.13;;;3.43;100.00
28630;BME280;15817;42.130;24.762;2023-12-20T01:02:06;100256.94;;;3.38;100.00
28630;BME280;15817;42.130;24.762;2023-12-20T01:05:13;100268.56;;;3.46;100.00
28630;BME280;15817;42.130;24.762;2023-12-20T01:08:07;100253.66;;;3.45;100.00
28630;BME280;15817;42.130;24.762;2023-12-20T01:10:41;100247.31;;;3.39;100.00
28630;BME280;15817;42.130;24.762;2023-12-20T01:13:35;100244.72;;;3.40;100.00
28630;BME280;15817;42.130;24.762;2023-12-20T01:16:21;100242.00;;;3.37;100.00
28630;BME280;15817;42.130;24.762;2023-12-20T01:19:00;100245.78;;;3.47;100.00
28630;BME280;15817;42.130;24.762;2023-12-20T01:21:48;100230.59;;;3.37;100.00
28630;BME280;15817;42.130;24.762;2023-12-20T01:24:17;100227.28;;;3.42;100.00
28630;BME280;15817;42.130;24.762;2023-12-20T01:26:59;100233.53;;;3.47;100.00
28630;BME280;15817;42.130;24.762;2023-12-20T01:29:35;100231.63;;;3.42;100.00
28630;BME280;15817;42.130;24.762;2023-12-20T01:32:07;100217.41;;;3.34;100.00
28630;BME280;15817;42.130;24.762;2023-12-20T01:34:55;100215.50;;;3.30;100.00
28630;BME280;15817;42.130;24.762;2023-12-20T01:37:32;100231.50;;;3.37;100.00
28630;BME280;15817;42.130;24.762;2023-12-20T01:40:03;100214.72;;;3.32;100.00
28630;BME280;15817;42.130;24.762;2023-12-20T01:42:38;100222.75;;;3.38;100.00
28630;BME280;15817;42.130;24.762;2023-12-20T01:45:18;100214.78;;;3.35;100.00
28630;BME280;15817;42.130;24.762;2023-12-20T01:47:48;100213.94;;;3.36;100.00
28630;BME280;15817;42.130;24.762;2023-12-20T01:53:51;100201.81;;;3.41;100.00
28630;BME280;15817;42.130;24.762;2023-12-20T01:56:22;100201.97;;;3.46;100.00
28630;BME280;15817;42.130;24.762;2023-12-20T01:58:53;100192.28;;;3.45;100.00
28630;BME280;15817;42.130;24.762;2023-12-20T02:01:28;100186.19;;;3.46;100.00
28630;BME280;15817;42.130;24.762;2023-12-20T02:04:05;100191.44;;;3.46;100.00
28630;BME280;15817;42.130;24.762;2023-12-20T02:06:43;100196.66;;;3.44;100.00
28630;BME280;15817;42.130;24.762;2023-12-20T02:09:35;100180.69;;;3.38;100.00
28630;BME280;15817;42.130;24.762;2023-12-20T02:12:31;100189.56;;;3.42;100.00
28630;BME280;15817;42.130;24.762;2023-12-20T02:15:10;100179.91;;;3.41;100.00
28630;BME280;15817;42.130;24.762;2023-12-20T02:17:59;100177.13;;;3.36;100.00
28630;BME280;15817;42.130;24.762;2023-12-20T02:20:54;100164.63;;;3.27;100.00
28630;BME280;15817;42.130;24.762;2023-12-20T02:23:23;100168.19;;;3.30;100.00
28630;BME280;15817;42.130;24.762;2023-12-20T02:25:49;100177.06;;;3.33;100.00
28630;BME280;15817;42.130;24.762;2023-12-20T02:28:18;100165.63;;;3.31;100.00
28630;BME280;15817;42.130;24.762;2023-12-20T02:30:54;100172.56;;;3.29;100.00
28630;BME280;15817;42.130;24.762;2023-12-20T02:33:24;100162.81;;;3.25;100.00
28630;BME280;15817;42.130;24.762;2023-12-20T02:35:59;100166.47;;;3.30;100.00
28630;BME280;15817;42.130;24.762;2023-12-20T02:38:32;100146.09;;;3.21;100.00
28630;BME280;15817;42.130;24.762;2023-12-20T02:41:03;100158.22;;;3.18;100.00
28630;BME280;15817;42.130;24.762;2023-12-20T02:43:34;100161.81;;;3.20;100.00
28630;BME280;15817;42.130;24.762;2023-12-20T02:46:13;100153.47;;;3.05;100.00
28630;BME280;15817;42.130;24.762;2023-12-20T02:48:39;100142.06;;;3.04;100.00
28630;BME280;15817;42.130;24.762;2023-12-20T02:51:05;100130.63;;;3.02;100.00
28630;BME280;15817;42.130;24.762;2023-12-20T02:53:42;100139.59;;;3.09;100.00
28630;BME280;15817;42.130;24.762;2023-12-20T02:56:37;100137.00;;;3.10;100.00
28630;BME280;15817;42.130;24.762;2023-12-20T02:59:46;100125.38;;;3.02;100.00
28630;BME280;15817;42.130;24.762;2023-12-20T03:02:12;100141.31;;;3.08;100.00
28630;BME280;15817;42.130;24.762;2023-12-20T03:04:43;100129.78;;;3.03;100.00
28630;BME280;15817;42.130;24.762;2023-12-20T03:07:09;100139.41;;;3.03;100.00
28630;BME280;15817;42.130;24.762;2023-12-20T03:09:37;100129.69;;;3.00;100.00
28630;BME280;15817;42.130;24.762;2023-12-20T03:12:06;100142.16;;;3.07;100.00
28630;BME280;15817;42.130;24.762;2023-12-20T03:14:34;100123.72;;;3.06;100.00
28630;BME280;15817;42.130;24.762;2023-12-20T03:17:04;100124.47;;;3.02;100.00
28630;BME280;15817;42.130;24.762;2023-12-20T03:19:33;100125.41;;;3.04;100.00
28630;BME280;15817;42.130;24.762;2023-12-20T03:22:06;100125.56;;;3.08;100.00
28630;BME280;15817;42.130;24.762;2023-12-20T03:24:32;100122.84;;;3.05;100.00
28630;BME280;15817;42.130;24.762;2023-12-20T03:27:00;100125.59;;;3.10;100.00
28630;BME280;15817;42.130;24.762;2023-12-20T03:29:28;100117.59;;;3.05;100.00
28630;BME280;15817;42.130;24.762;2023-12-20T03:32:00;100111.28;;;3.00;100.00
28630;BME280;15817;42.130;24.762;2023-12-20T03:34:35;100120.13;;;3.02;100.00
28630;BME280;15817;42.130;24.762;2023-12-20T03:37:04;100116.78;;;3.08;100.00
28630;BME280;15817;42.130;24.762;2023-12-20T03:39:32;100116.75;;;3.06;100.00
28630;BME280;15817;42.130;24.762;2023-12-20T03:41:58;100111.53;;;3.08;100.00
28630;BME280;15817;42.130;24.762;2023-12-20T03:44:23;100112.22;;;3.02;100.00
28630;BME280;15817;42.130;24.762;2023-12-20T03:46:49;100101.56;;;2.96;100.00
28630;BME280;15817;42.130;24.762;2023-12-20T03:49:21;100111.22;;;2.97;100.00
28630;BME280;15817;42.130;24.762;2023-12-20T03:51:52;100103.31;;;2.96;100.00
28630;BME280;15817;42.130;24.762;2023-12-20T03:54:18;100101.44;;;2.91;100.00
28630;BME280;15817;42.130;24.762;2023-12-20T03:56:44;100112.72;;;2.89;100.00
28630;BME280;15817;42.130;24.762;2023-12-20T03:59:10;100111.88;;;2.90;100.00
28630;BME280;15817;42.130;24.762;2023-12-20T04:01:35;100114.47;;;2.88;100.00
28630;BME280;15817;42.130;24.762;2023-12-20T04:04:05;100106.31;;;2.79;100.00
28630;BME280;15817;42.130;24.762;2023-12-20T04:06:34;100127.47;;;2.84;100.00
28630;BME280;15817;42.130;24.762;2023-12-20T04:09:04;100103.53;;;2.73;100.00
28630;BME280;15817;42.130;24.762;2023-12-20T04:11:39;100093.13;;;2.76;100.00
28630;BME280;15817;42.130;24.762;2023-12-20T04:14:05;100089.56;;;2.74;100.00
28630;BME280;15817;42.130;24.762;2023-12-20T04:16:33;100095.66;;;2.73;100.00
28630;BME280;15817;42.130;24.762;2023-12-20T04:19:04;100093.97;;;2.75;100.00
28630;BME280;15817;42.130;24.762;2023-12-20T04:21:33;100096.50;;;2.72;100.00
28630;BME280;15817;42.130;24.762;2023-12-20T04:23:58;100106.13;;;2.72;100.00
28630;BME280;15817;42.130;24.762;2023-12-20T04:26:30;100095.41;;;2.64;100.00
28630;BME280;15817;42.130;24.762;2023-12-20T04:28:58;100095.41;;;2.66;100.00
28630;BME280;15817;42.130;24.762;2023-12-20T04:31:24;100108.53;;;2.66;100.00
28630;BME280;15817;42.130;24.762;2023-12-20T04:33:52;100096.88;;;2.56;100.00
28630;BME280;15817;42.130;24.762;2023-12-20T04:36:19;100086.44;;;2.58;100.00
28630;BME280;15817;42.130;24.762;2023-12-20T04:38:57;100103.28;;;2.66;100.00
28630;BME280;15817;42.130;24.762;2023-12-20T04:41:27;100087.34;;;2.58;100.00
28630;BME280;15817;42.130;24.762;2023-12-20T04:43:59;100088.22;;;2.59;100.00
28630;BME280;15817;42.130;24.762;2023-12-20T04:46:26;100094.38;;;2.59;100.00
28630;BME280;15817;42.130;24.762;2023-12-20T04:48:54;100081.28;;;2.61;100.00
28630;BME280;15817;42.130;24.762;2023-12-20T04:51:38;100071.47;;;2.53;100.00
28630;BME280;15817;42.130;24.762;2023-12-20T04:54:17;100068.75;;;2.50;100.00
28630;BME280;15817;42.130;24.762;2023-12-20T04:56:46;100081.06;;;2.53;100.00
28630;BME280;15817;42.130;24.762;2023-12-20T04:59:14;100074.84;;;2.49;100.00
28630;BME280;15817;42.130;24.762;2023-12-20T05:02:03;100075.81;;;2.53;100.00
28630;BME280;15817;42.130;24.762;2023-12-20T05:05:03;100071.31;;;2.49;100.00
28630;BME280;15817;42.130;24.762;2023-12-20T05:07:32;100062.50;;;2.47;100.00
28630;BME280;15817;42.130;24.762;2023-12-20T05:09:58;100070.47;;;2.50;100.00
28630;BME280;15817;42.130;24.762;2023-12-20T05:12:30;100063.19;;;2.40;100.00
28630;BME280;15817;42.130;24.762;2023-12-20T05:15:06;100067.59;;;2.42;100.00
28630;BME280;15817;42.130;24.762;2023-12-20T05:18:04;100063.91;;;2.36;100.00
28630;BME280;15817;42.130;24.762;2023-12-20T05:20:32;100063.13;;;2.38;100.00
28630;BME280;15817;42.130;24.762;2023-12-20T05:23:00;100059.34;;;2.29;100.00
28630;BME280;15817;42.130;24.762;2023-12-20T05:25:34;100052.31;;;2.28;100.00
28630;BME280;15817;42.130;24.762;2023-12-20T05:28:02;100063.88;;;2.34;100.00
28630;BME280;15817;42.130;24.762;2023-12-20T05:30:28;100046.03;;;2.23;100.00
28630;BME280;15817;42.130;24.762;2023-12-20T05:32:54;100050.53;;;2.27;100.00
28630;BME280;15817;42.130;24.762;2023-12-20T05:35:20;100052.25;;;2.26;100.00
28630;BME280;15817;42.130;24.762;2023-12-20T05:37:53;100041.63;;;2.22;100.00
28630;BME280;15817;42.130;24.762;2023-12-20T05:40:19;100036.38;;;2.22;100.00
28630;BME280;15817;42.130;24.762;2023-12-20T05:42:45;100039.94;;;2.24;100.00
28630;BME280;15817;42.130;24.762;2023-12-20T05:45:48;100031.91;;;2.17;100.00
28630;BME280;15817;42.130;24.762;2023-12-20T05:48:35;100045.19;;;2.24;100.00
28630;BME280;15817;42.130;24.762;2023-12-20T05:51:00;100025.72;;;2.15;100.00
28630;BME280;15817;42.130;24.762;2023-12-20T05:53:29;100043.28;;;2.18;100.00
28630;BME280;15817;42.130;24.762;2023-12-20T05:56:13;100036.31;;;2.20;100.00
28630;BME280;15817;42.130;24.762;2023-12-20T05:58:41;100026.53;;;2.14;100.00
28630;BME280;15817;42.130;24.762;2023-12-20T06:01:11;100023.78;;;2.10;100.00
28630;BME280;15817;42.130;24.762;2023-12-20T06:03:48;100023.81;;;2.11;100.00
28630;BME280;15817;42.130;24.762;2023-12-20T06:06:19;100008.91;;;2.10;100.00
28630;BME280;15817;42.130;24.762;2023-12-20T06:08:47;100023.97;;;2.16;100.00
28630;BME280;15817;42.130;24.762;2023-12-20T06:11:19;100016.94;;;2.15;100.00
28630;BME280;15817;42.130;24.762;2023-12-20T06:13:44;100017.78;;;2.14;100.00
28630;BME280;15817;42.130;24.762;2023-12-20T06:16:10;100023.03;;;2.14;100.00
28630;BME280;15817;42.130;24.762;2023-12-20T06:18:36;100015.13;;;2.12;100.00
28630;BME280;15817;42.130;24.762;2023-12-20T06:21:05;100019.41;;;2.10;100.00
28630;BME280;15817;42.130;24.762;2023-12-20T06:23:34;100014.09;;;2.07;100.00
28630;BME280;15817;42.130;24.762;2023-12-20T06:26:00;100029.28;;;2.17;100.00
28630;BME280;15817;42.130;24.762;2023-12-20T06:28:36;100010.59;;;2.08;100.00
28630;BME280;15817;42.130;24.762;2023-12-20T06:31:02;100022.09;;;2.12;100.00
28630;BME280;15817;42.130;24.762;2023-12-20T06:33:30;100013.59;;;2.21;100.00
28630;BME280;15817;42.130;24.762;2023-12-20T06:35:57;100015.16;;;2.14;100.00
28630;BME280;15817;42.130;24.762;2023-12-20T06:38:26;100016.28;;;2.22;100.00
28630;BME280;15817;42.130;24.762;2023-12-20T06:41:17;100020.69;;;2.23;100.00
28630;BME280;15817;42.130;24.762;2023-12-20T06:43:43;100034.16;;;2.35;100.00
28630;BME280;15817;42.130;24.762;2023-12-20T06:46:12;100014.84;;;2.33;100.00
28630;BME280;15817;42.130;24.762;2023-12-20T06:48:39;100022.97;;;2.42;100.00
28630;BME280;15817;42.130;24.762;2023-12-20T06:51:06;100028.31;;;2.45;100.00
28630;BME280;15817;42.130;24.762;2023-12-20T06:53:32;100008.06;;;2.40;100.00
28630;BME280;15817;42.130;24.762;2023-12-20T06:56:00;100008.16;;;2.44;100.00
28630;BME280;15817;42.130;24.762;2023-12-20T06:58:28;99990.66;;;2.43;100.00
28630;BME280;15817;42.130;24.762;2023-12-20T07:01:06;100008.41;;;2.52;100.00
28630;BME280;15817;42.130;24.762;2023-12-20T07:03:38;100001.44;;;2.54;100.00
28630;BME280;15817;42.130;24.762;2023-12-20T07:06:05;100008.56;;;2.58;100.00
28630;BME280;15817;42.130;24.762;2023-12-20T07:08:31;99989.31;;;2.58;100.00
28630;BME280;15817;42.130;24.762;2023-12-20T07:10:57;100008.81;;;2.67;100.00
28630;BME280;15817;42.130;24.762;2023-12-20T07:13:22;100000.03;;;2.65;100.00
28630;BME280;15817;42.130;24.762;2023-12-20T07:15:49;99991.28;;;2.65;100.00
28630;BME280;15817;42.130;24.762;2023-12-20T07:18:14;100001.88;;;2.69;100.00
28630;BME280;15817;42.130;24.762;2023-12-20T07:20:40;99999.41;;;2.74;100.00
28630;BME280;15817;42.130;24.762;2023-12-20T07:23:06;99988.69;;;2.68;100.00
28630;BME280;15817;42.130;24.762;2023-12-20T07:25:32;100000.34;;;2.77;100.00
28630;BME280;15817;42.130;24.762;2023-12-20T07:27:58;99990.78;;;2.79;100.00
28630;BME280;15817;42.130;24.762;2023-12-20T07:30:24;99974.03;;;2.74;100.00
28630;BME280;15817;42.130;24.762;2023-12-20T07:32:49;99963.56;;;2.77;100.00
28630;BME280;15817;42.130;24.762;2023-12-20T07:35:16;99967.31;;;2.85;100.00
28630;BME280;15817;42.130;24.762;2023-12-20T07:37:41;99965.63;;;2.87;100.00
28630;BME280;15817;42.130;24.762;2023-12-20T07:40:08;99970.94;;;2.90;100.00
28630;BME280;15817;42.130;24.762;2023-12-20T07:42:36;99971.06;;;2.95;100.00
28630;BME280;15817;42.130;24.762;2023-12-20T07:45:03;99969.34;;;2.96;100.00
28630;BME280;15817;42.130;24.762;2023-12-20T07:47:29;99956.19;;;2.96;100.00
28630;BME280;15817;42.130;24.762;2023-12-20T07:49:55;99968.72;;;3.06;100.00
28630;BME280;15817;42.130;24.762;2023-12-20T07:52:21;99975.78;;;3.08;100.00
28630;BME280;15817;42.130;24.762;2023-12-20T07:54:49;99957.50;;;3.13;100.00
28630;BME280;15817;42.130;24.762;2023-12-20T07:57:15;99953.13;;;3.13;100.00
28630;BME280;15817;42.130;24.762;2023-12-20T07:59:41;99948.75;;;3.14;100.00
28630;BME280;15817;42.130;24.762;2023-12-20T08:02:06;99962.16;;;3.24;100.00
28630;BME280;15817;42.130;24.762;2023-12-20T08:04:32;99959.53;;;3.23;100.00
28630;BME280;15817;42.130;24.762;2023-12-20T08:06:58;99961.28;;;3.24;100.00
28630;BME280;15817;42.130;24.762;2023-12-20T08:09:24;99954.19;;;3.20;100.00
28630;BME280;15817;42.130;24.762;2023-12-20T08:11:50;99960.38;;;3.23;100.00
28630;BME280;15817;42.130;24.762;2023-12-20T08:14:16;99941.97;;;3.22;100.00
28630;BME280;15817;42.130;24.762;2023-12-20T08:16:42;99938.47;;;3.21;100.00
28630;BME280;15817;42.130;24.762;2023-12-20T08:19:10;99951.78;;;3.29;100.00
28630;BME280;15817;42.130;24.762;2023-12-20T08:21:36;99951.88;;;3.32;100.00
28630;BME280;15817;42.130;24.762;2023-12-20T08:24:01;99950.16;;;3.36;100.00
28630;BME280;15817;42.130;24.762;2023-12-20T08:26:27;99929.91;;;3.30;100.00
28630;BME280;15817;42.130;24.762;2023-12-20T08:28:53;99939.06;;;3.46;100.00
28630;BME280;15817;42.130;24.762;2023-12-20T08:34:23;99933.88;;;3.50;100.00
28630;BME280;15817;42.130;24.762;2023-12-20T08:36:50;99930.47;;;3.54;100.00
28630;BME280;15817;42.130;24.762;2023-12-20T08:39:17;99915.63;;;3.56;100.00
28630;BME280;15817;42.130;24.762;2023-12-20T08:41:43;99927.16;;;3.63;100.00
28630;BME280;15817;42.130;24.762;2023-12-20T08:44:09;99907.88;;;3.62;100.00
28630;BME280;15817;42.130;24.762;2023-12-20T08:46:35;99907.94;;;3.66;100.00
28630;BME280;15817;42.130;24.762;2023-12-20T08:49:02;99894.78;;;3.66;100.00
28630;BME280;15817;42.130;24.762;2023-12-20T08:51:31;99888.53;;;3.60;100.00
28630;BME280;15817;42.130;24.762;2023-12-20T08:53:56;99888.56;;;3.62;100.00
28630;BME280;15817;42.130;24.762;2023-12-20T08:56:22;99875.50;;;3.65;100.00
28630;BME280;15817;42.130;24.762;2023-12-20T08:58:48;99868.38;;;3.61;100.00
28630;BME280;15817;42.130;24.762;2023-12-20T09:01:14;99873.91;;;3.73;100.00
28630;BME280;15817;42.130;24.762;2023-12-20T09:03:40;99856.31;;;3.71;100.00
28630;BME280;15817;42.130;24.762;2023-12-20T09:06:06;99859.09;;;3.77;100.00
28630;BME280;15817;42.130;24.762;2023-12-20T09:08:32;99860.06;;;3.82;100.00
28630;BME280;15817;42.130;24.762;2023-12-20T09:10:59;99848.75;;;3.86;100.00
28630;BME280;15817;42.130;24.762;2023-12-20T09:13:26;99847.13;;;3.92;100.00
28630;BME280;15817;42.130;24.762;2023-12-20T09:15:56;99833.19;;;3.96;100.00
28630;BME280;15817;42.130;24.762;2023-12-20T09:18:22;99838.78;;;4.13;100.00
28630;BME280;15817;42.130;24.762;2023-12-20T09:20:49;99830.34;;;4.31;100.00
28630;BME280;15817;42.130;24.762;2023-12-20T09:23:15;99813.84;;;4.41;100.00
28630;BME280;15817;42.130;24.762;2023-12-20T09:25:42;99819.34;;;4.55;100.00
28630;BME280;15817;42.130;24.762;2023-12-20T09:28:08;99811.66;;;4.67;100.00
28630;BME280;15817;42.130;24.762;2023-12-20T09:30:33;99813.41;;;4.66;100.00
28630;BME280;15817;42.130;24.762;2023-12-20T09:33:04;99820.41;;;4.66;100.00
28630;BME280;15817;42.130;24.762;2023-12-20T09:35:30;99809.81;;;4.63;100.00
28630;BME280;15817;42.130;24.762;2023-12-20T09:37:56;99811.66;;;4.67;100.00
28630;BME280;15817;42.130;24.762;2023-12-20T09:40:22;99792.31;;;4.65;100.00
28630;BME280;15817;42.130;24.762;2023-12-20T09:42:57;99792.50;;;4.77;100.00
28630;BME280;15817;42.130;24.762;2023-12-20T09:45:25;99788.22;;;4.85;100.00
28630;BME280;15817;42.130;24.762;2023-12-20T09:47:52;99768.84;;;4.80;100.00
28630;BME280;15817;42.130;24.762;2023-12-20T09:50:22;99768.94;;;4.86;100.00
28630;BME280;15817;42.130;24.762;2023-12-20T09:52:52;99754.06;;;4.90;100.00
28630;BME280;15817;42.130;24.762;2023-12-20T09:55:19;99768.31;;;5.04;100.00
28630;BME280;15817;42.130;24.762;2023-12-20T09:57:46;99760.44;;;5.05;100.00
28630;BME280;15817;42.130;24.762;2023-12-20T10:00:13;99756.19;;;5.15;100.00
28630;BME280;15817;42.130;24.762;2023-12-20T10:02:49;99758.88;;;5.18;100.00
28630;BME280;15817;42.130;24.762;2023-12-20T10:05:17;99752.84;;;5.27;100.00
28630;BME280;15817;42.130;24.762;2023-12-20T10:07:46;99754.72;;;5.37;100.00
28630;BME280;15817;42.130;24.762;2023-12-20T10:10:14;99732.69;;;5.33;100.00
28630;BME280;15817;42.130;24.762;2023-12-20T10:13:01;99723.88;;;5.30;100.00
28630;BME280;15817;42.130;24.762;2023-12-20T10:15:27;99722.13;;;5.32;100.00
28630;BME280;15817;42.130;24.762;2023-12-20T10:17:53;99723.06;;;5.35;100.00
28630;BME280;15817;42.130;24.762;2023-12-20T10:20:20;99717.03;;;5.45;100.00
28630;BME280;15817;42.130;24.762;2023-12-20T10:22:49;99717.19;;;5.59;100.00
28630;BME280;15817;42.130;24.762;2023-12-20T10:25:15;99715.56;;;5.72;100.00
28630;BME280;15817;42.130;24.762;2023-12-20T10:27:43;99705.81;;;5.66;100.00
28630;BME280;15817;42.130;24.762;2023-12-20T10:30:12;99700.50;;;5.62;100.00
28630;BME280;15817;42.130;24.762;2023-12-20T10:32:40;99694.31;;;5.58;100.00
28630;BME280;15817;42.130;24.762;2023-12-20T10:35:09;99688.09;;;5.55;100.00
28630;BME280;15817;42.130;24.762;2023-12-20T10:37:38;99680.28;;;5.61;100.00
28630;BME280;15817;42.130;24.762;2023-12-20T10:40:10;99683.84;;;5.67;100.00
28630;BME280;15817;42.130;24.762;2023-12-20T10:42:41;99686.63;;;5.76;100.00
28630;BME280;15817;42.130;24.762;2023-12-20T10:45:07;99661.94;;;5.73;100.00
28630;BME280;15817;42.130;24.762;2023-12-20T10:47:35;99658.41;;;5.72;100.00
28630;BME280;15817;42.130;24.762;2023-12-20T10:50:01;99657.56;;;5.78;100.00
28630;BME280;15817;42.130;24.762;2023-12-20T10:52:32;99646.22;;;5.83;100.00
28630;BME280;15817;42.130;24.762;2023-12-20T10:54:58;99641.88;;;5.90;100.00
28630;BME280;15817;42.130;24.762;2023-12-20T10:57:25;99655.16;;;5.96;100.00
28630;BME280;15817;42.130;24.762;2023-12-20T10:59:53;99634.06;;;5.99;100.00
28630;BME280;15817;42.130;24.762;2023-12-20T11:02:20;99619.94;;;5.94;100.00
28630;BME280;15817;42.130;24.762;2023-12-20T11:09:56;99621.03;;;6.19;100.00
28630;BME280;15817;42.130;24.762;2023-12-20T11:12:39;99619.38;;;6.35;100.00
28630;BME280;15817;42.130;24.762;2023-12-20T11:15:10;99616.78;;;6.41;100.00
28630;BME280;15817;42.130;24.762;2023-12-20T11:17:39;99599.09;;;6.31;100.00
28630;BME280;15817;42.130;24.762;2023-12-20T11:20:07;99613.22;;;6.37;100.00
28630;BME280;15817;42.130;24.762;2023-12-20T11:22:36;99600.97;;;6.44;100.00
28630;BME280;15817;42.130;24.762;2023-12-20T11:25:13;99588.63;;;6.44;100.00
28630;BME280;15817;42.130;24.762;2023-12-20T11:28:16;99593.94;;;6.46;100.00
28630;BME280;15817;42.130;24.762;2023-12-20T11:31:00;99585.09;;;6.42;100.00
28630;BME280;15817;42.130;24.762;2023-12-20T11:33:35;99578.94;;;6.48;100.00
28630;BME280;15817;42.130;24.762;2023-12-20T11:36:01;99570.19;;;6.52;100.00
28630;BME280;15817;42.130;24.762;2023-12-20T11:38:36;99571.97;;;6.58;100.00
28630;BME280;15817;42.130;24.762;2023-12-20T11:41:05;99566.69;;;6.54;100.00
28630;BME280;15817;42.130;24.762;2023-12-20T11:43:36;99565.81;;;6.60;100.00
28630;BME280;15817;42.130;24.762;2023-12-20T11:46:06;99554.38;;;6.57;100.00
28630;BME280;15817;42.130;24.762;2023-12-20T11:48:34;99558.75;;;6.61;100.00
28630;BME280;15817;42.130;24.762;2023-12-20T11:51:01;99545.56;;;6.58;100.00
28630;BME280;15817;42.130;24.762;2023-12-20T11:53:30;99542.03;;;6.56;100.00
28630;BME280;15817;42.130;24.762;2023-12-20T11:55:59;99543.78;;;6.57;100.00
28630;BME280;15817;42.130;24.762;2023-12-20T11:58:28;99529.69;;;6.54;100.00
28630;BME280;15817;42.130;24.762;2023-12-20T12:00:57;99538.53;;;6.66;100.00
28630;BME280;15817;42.130;24.762;2023-12-20T12:03:28;99527.09;;;6.67;100.00
28630;BME280;15817;42.130;24.762;2023-12-20T12:06:17;99524.44;;;6.64;100.00
28630;BME280;15817;42.130;24.762;2023-12-20T12:08:50;99519.16;;;6.58;100.00
28630;BME280;15817;42.130;24.762;2023-12-20T12:11:16;99514.72;;;6.58;100.00
28630;BME280;15817;42.130;24.762;2023-12-20T12:14:09;99509.44;;;6.58;100.00
28630;BME280;15817;42.130;24.762;2023-12-20T12:16:35;99507.72;;;6.68;100.00
28630;BME280;15817;42.130;24.762;2023-12-20T12:19:20;99505.94;;;6.65;100.00
28630;BME280;15817;42.130;24.762;2023-12-20T12:22:08;99485.69;;;6.64;100.00
28630;BME280;15817;42.130;24.762;2023-12-20T12:24:41;99492.75;;;6.67;100.00
28630;BME280;15817;42.130;24.762;2023-12-20T12:27:19;99485.69;;;6.64;100.00
28630;BME280;15817;42.130;24.762;2023-12-20T12:30:06;99483.94;;;6.65;100.00
28630;BME280;15817;42.130;24.762;2023-12-20T12:32:36;99490.09;;;6.70;100.00
28630;BME280;15817;42.130;24.762;2023-12-20T12:35:11;99501.56;;;6.75;100.00
28630;BME280;15817;42.130;24.762;2023-12-20T12:37:42;99487.47;;;6.71;100.00
28630;BME280;15817;42.130;24.762;2023-12-20T12:40:16;99483.06;;;6.73;100.00
28630;BME280;15817;42.130;24.762;2023-12-20T12:42:46;99476.88;;;6.70;100.00
28630;BME280;15817;42.130;24.762;2023-12-20T12:45:17;99474.25;;;6.73;100.00
28630;BME280;15817;42.130;24.762;2023-12-20T12:47:52;99464.56;;;6.72;100.00
28630;BME280;15817;42.130;24.762;2023-12-20T12:50:20;99477.81;;;6.78;100.00
28630;BME280;15817;42.130;24.762;2023-12-20T12:52:49;99465.47;;;6.75;100.00
28630;BME280;15817;42.130;24.762;2023-12-20T12:55:18;99461.94;;;6.73;100.00
28630;BME280;15817;42.130;24.762;2023-12-20T12:57:49;99458.41;;;6.74;100.00
28630;BME280;15817;42.130;24.762;2023-12-20T13:00:18;99464.59;;;6.76;100.00
28630;BME280;15817;42.130;24.762;2023-12-20T13:02:48;99471.63;;;6.77;100.00
28630;BME280;15817;42.130;24.762;2023-12-20T13:05:16;99469.00;;;6.77;100.00
28630;BME280;15817;42.130;24.762;2023-12-20T13:07:43;99460.16;;;6.74;100.00
28630;BME280;15817;42.130;24.762;2023-12-20T13:10:11;99460.19;;;6.77;100.00
28630;BME280;15817;42.130;24.762;2023-12-20T13:12:40;99465.47;;;6.78;100.00
28630;BME280;15817;42.130;24.762;2023-12-20T13:15:27;99449.59;;;6.74;100.00
28630;BME280;15817;42.130;24.762;2023-12-20T13:17:55;99463.72;;;6.77;100.00
28630;BME280;15817;42.130;24.762;2023-12-20T13:20:23;99459.31;;;6.76;100.00
28630;BME280;15817;42.130;24.762;2023-12-20T13:23:05;99454.88;;;6.75;100.00
28630;BME280;15817;42.130;24.762;2023-12-20T13:25:54;99441.69;;;6.80;100.00
28630;BME280;15817;42.130;24.762;2023-12-20T13:28:20;99438.19;;;6.79;100.00